PWSweather.com
Personal Weather Stations
Station Observations

OlomoucCZ

Lat: 49.5936202181, Lon: 17.2276005149

Elevation: 752

Station Type: Davis Vantage Pro 2 Activ

http://infopocasi-olomouc.cz

Latest ConditionsUpdated 11:30:01 AM GMT+01:01 Tuesday, Aug 20, 2019
Currently Today's Max Today's Min Today's Average
Temperature 78.5°F25.8°C 78.5°F25.8°C 64.6°F18.1°C 69.6°F20.9°C
Dew Point 64.9°F18.3°C 65.4°F18.6°C 60.8°F16.0°C 62.8°F17.1°C
Winds 3.5 mph SE5.6 kmh SE 9.2 mph -14.8 kmh - - 3.7 mph 6.0 kmh
Wind Gusts 4.6 mph7.4 kmh 11.5 mph18.5 kmh - -
Humidity 63% 89% 63% 79%
Pressure 30.08 in1018.6 mb 30.10 in1019.3 mb 30.05 in1017.6 mb -
Hour Temp Dew Point Humidity Winds Wind Gusts Pressure Precip Precip Rate Daily Precip Total
11:30 AM 78.5°F25.8°C 64.9°F18.3°C 63% 3.5 mph SE5.6 kmh SE 4.6 mph7.4 kmh 30.08 in1018.6 mb - 0.00 in0.0 mm 0.00 in0.0 mm
11:00 AM 78.1°F25.6°C 65.4°F18.6°C 65% 9.2 mph NNE14.8 kmh NNE 11.5 mph18.5 kmh 30.08 in1018.6 mb - 0.00 in0.0 mm 0.00 in0.0 mm
10:30 AM 76.5°F24.7°C 64.7°F18.2°C 67% 3.5 mph NNW5.6 kmh NNW 8.1 mph13.0 kmh 30.09 in1019.0 mb - 0.00 in0.0 mm 0.00 in0.0 mm
10:00 AM 76.0°F24.4°C 64.7°F18.2°C 68% 4.6 mph N7.4 kmh N 5.8 mph9.3 kmh 30.09 in1019.0 mb - 0.00 in0.0 mm 0.00 in0.0 mm
09:30 AM 75.0°F23.9°C 63.8°F17.7°C 68% 3.5 mph ENE5.6 kmh ENE 3.5 mph5.6 kmh 30.09 in1019.0 mb - 0.00 in0.0 mm 0.00 in0.0 mm
09:00 AM 73.5°F23.1°C 64.7°F18.2°C 74% 1.2 mph 1.9 kmh 2.3 mph3.7 kmh 30.09 in1019.0 mb - 0.00 in0.0 mm 0.00 in0.0 mm
08:30 AM 72.7°F22.6°C 64.7°F18.2°C 76% 3.5 mph NW5.6 kmh NW 8.1 mph13.0 kmh 30.09 in1019.0 mb - 0.00 in0.0 mm 0.00 in0.0 mm
08:00 AM 71.2°F21.8°C 64.4°F18.0°C 79% 2.3 mph NW3.7 kmh NW 3.5 mph5.6 kmh 30.10 in1019.3 mb - 0.00 in0.0 mm 0.00 in0.0 mm
07:30 AM 68.8°F20.4°C 63.1°F17.3°C 82% 1.2 mph NW1.9 kmh NW 3.5 mph5.6 kmh 30.10 in1019.3 mb - 0.00 in0.0 mm 0.00 in0.0 mm
07:00 AM 66.9°F19.4°C 62.2°F16.8°C 85% 1.2 mph NW1.9 kmh NW 2.3 mph3.7 kmh 30.09 in1019.0 mb - 0.00 in0.0 mm 0.00 in0.0 mm
06:30 AM 66.1°F18.9°C 61.8°F16.6°C 86% 4.6 mph NW7.4 kmh NW 5.8 mph9.3 kmh 30.10 in1019.3 mb - 0.00 in0.0 mm 0.00 in0.0 mm
06:00 AM 65.1°F18.4°C 61.2°F16.2°C 87% 4.6 mph WNW7.4 kmh WNW 6.9 mph11.1 kmh 30.09 in1019.0 mb - 0.00 in0.0 mm 0.00 in0.0 mm
05:30 AM 64.6°F18.1°C 61.3°F16.3°C 89% 2.3 mph NW3.7 kmh NW 2.3 mph3.7 kmh 30.08 in1018.6 mb - 0.00 in0.0 mm 0.00 in0.0 mm
05:00 AM 65.4°F18.6°C 61.1°F16.2°C 86% 4.6 mph WNW7.4 kmh WNW 6.9 mph11.1 kmh 30.09 in1019.0 mb - 0.00 in0.0 mm 0.00 in0.0 mm
04:30 AM 65.4°F18.6°C 60.8°F16.0°C 85% 4.6 mph WNW7.4 kmh WNW 8.1 mph13.0 kmh 30.08 in1018.6 mb - 0.00 in0.0 mm 0.00 in0.0 mm
04:00 AM 65.7°F18.7°C 61.4°F16.3°C 86% 3.5 mph WNW5.6 kmh WNW 3.5 mph5.6 kmh 30.08 in1018.6 mb - 0.00 in0.0 mm 0.00 in0.0 mm
03:30 AM 66.1°F18.9°C 61.8°F16.6°C 86% 5.8 mph WNW9.3 kmh WNW 9.2 mph14.8 kmh 30.07 in1018.3 mb - 0.00 in0.0 mm 0.00 in0.0 mm
03:00 AM 66.4°F19.1°C 61.7°F16.5°C 85% 6.9 mph WNW11.1 kmh WNW 9.2 mph14.8 kmh 30.07 in1018.3 mb - 0.00 in0.0 mm 0.00 in0.0 mm
02:30 AM 67.0°F19.4°C 62.0°F16.7°C 84% 4.6 mph NW7.4 kmh NW 4.6 mph7.4 kmh 30.06 in1017.9 mb - 0.00 in0.0 mm 0.00 in0.0 mm
02:00 AM 67.4°F19.7°C 62.1°F16.7°C 83% 4.6 mph WNW7.4 kmh WNW 6.9 mph11.1 kmh 30.07 in1018.3 mb - 0.00 in0.0 mm 0.00 in0.0 mm
01:30 AM 67.7°F19.8°C 62.0°F16.7°C 82% 2.3 mph W3.7 kmh W 3.5 mph5.6 kmh 30.06 in1017.9 mb - 0.00 in0.0 mm 0.00 in0.0 mm
01:00 AM 69.0°F20.6°C 62.2°F16.8°C 79% 2.3 mph N3.7 kmh N 2.3 mph3.7 kmh 30.05 in1017.6 mb - 0.00 in0.0 mm 0.00 in0.0 mm
12:30 AM 69.2°F20.7°C 62.4°F16.9°C 79% 1.2 mph NNE1.9 kmh NNE 2.3 mph3.7 kmh 30.05 in1017.6 mb - 0.00 in0.0 mm 0.00 in0.0 mm
12:00 AM 69.1°F20.6°C 62.6°F17.0°C 80% 2.3 mph NW3.7 kmh NW 3.5 mph5.6 kmh 30.05 in1017.6 mb - 0.00 in0.0 mm 0.00 in0.0 mm